Kountze, Texas
Current Conditions -  °F | °C
As of 12:55 PM on Thursday 23 Oct 2014 (Local Time) from KBMT Reporting Station
Clear Clear  
Wind Chill: 69°   Ceiling: Unl
Heat Index: 69°   Visibility: 10mi
Dew Point: 56°   Wind: 6mph
Humidity: 62%   Direction: 330°NNW
Pressure: 30.13"   Gusts: NA
Location:  30.37°N, 94.31°W
Report Text: KBMT 231755Z AUTO 33005KT 10SM CLR 21/13 A3013 RMK AO2 T02080134 10208 20124
Loading
Personal Weather Stations






























Interactive Weather Map
Tropical Storm Tracking
New forecast layout! Learn more

10-Day Weather Forecast

Advertisements
Track Severe Weather on mobile